Spring Mountain Youth Camp, Nevada Weather observations

Data are for 60 minute period ending at time listed.
 Day   Time   Solar   Ave.   Ave.  Ave.  Vector  Max.   Baro.   Total    
  of    of     Rad.   Air    Rel.  Wind   Wind   Wind  Press.  Precip.   
Year   Day            Temp.  Hum.  Speed  Dir.   Gust                    
2016   (PST)  Kw/m2    F      %     mph   deg.    mph    mb.     in.     
-------------------------------------------------------------------------
 205    9:00   0.54   75.5    16    8.4   164    17.8   795.8    0.00 
 205   10:00   0.84   77.6    15   11.4   168    22.0   795.8    0.00 
 205   11:00   0.96   79.0    14    8.2   166    18.8   795.7    0.00 
 205   12:00   1.01   80.5    14    6.2   139    15.8   795.6    0.00 
 205   13:00   1.01   80.2    14    5.9    50    16.6   795.4    0.00 
 205   14:00   0.95   80.9    13    5.5    44    15.6   795.1    0.00 
 205   15:00   0.83   83.1    13    4.8    77    18.5   794.6    0.00 
 205   16:00   0.66   82.4    13    4.4     7    17.1   794.4    0.00 
 205   17:00   0.46   81.9    13    3.7   255    13.2   794.1    0.00 
 205   18:00   0.25   79.4    14    4.4   239    12.1   793.9    0.00 
 205   19:00   0.04   74.8    17    1.7   273     7.7   794.2    0.00 
 205   20:00   0.00   72.5    17    2.2   260     6.7   794.4    0.00 
 205   21:00   0.00   72.4    17    2.1   274     3.8   794.8    0.00 
 205   22:00   0.00   70.2    18    1.2    24     2.9   794.9    0.00 
 205   23:00   0.00   70.2    17    1.5   244     4.8   794.9    0.00 
 206    0:00   0.00   68.7    18    1.3   105     4.2   794.8    0.00 
 206    1:00   0.00   67.8    20    0.9    93     3.1   794.6    0.00 
 206    2:00   0.00   68.7    19    2.0    45     5.3   794.4    0.00 
 206    3:00   0.00   67.6    20    2.7    31     5.0   794.3    0.00 
 206    4:00   0.00   64.7    23    3.1    30     4.7   794.4    0.00 
 206    5:00   0.00   64.1    23    3.2    38     4.7   794.5    0.00 
 206    6:00   0.03   65.5    23    4.4    60     5.9   794.8    0.00 
 206    7:00   0.28   73.1    20    1.4   108     3.8   795.2    0.00 
 206    8:00   0.29   73.6    20    5.4   160    15.6   795.2    0.00 

Return to Spring Mountain Youth Camp graphs page.


Western Regional Climate Center,wrcc@dri.edu